sensor_id;sensor_type;location;lat;lon;timestamp;temperature;humidity
36654;DHT22;22650;49.350;20.898;2022-11-20T00:01:18;-3.00;99.90
36654;DHT22;22650;49.350;20.898;2022-11-20T00:03:53;-3.00;99.90
36654;DHT22;22650;49.350;20.898;2022-11-20T00:06:28;-3.00;99.90
36654;DHT22;22650;49.350;20.898;2022-11-20T00:09:01;-3.00;99.90
36654;DHT22;22650;49.350;20.898;2022-11-20T00:11:35;-2.90;99.90
36654;DHT22;22650;49.350;20.898;2022-11-20T00:14:09;-3.00;99.90
36654;DHT22;22650;49.350;20.898;2022-11-20T00:16:44;-3.10;99.90
36654;DHT22;22650;49.350;20.898;2022-11-20T00:19:18;-3.10;99.90
36654;DHT22;22650;49.350;20.898;2022-11-20T00:21:52;-3.00;99.90
36654;DHT22;22650;49.350;20.898;2022-11-20T00:24:27;-3.10;99.90
36654;DHT22;22650;49.350;20.898;2022-11-20T00:27:00;-3.10;99.90
36654;DHT22;22650;49.350;20.898;2022-11-20T00:29:34;-3.10;99.90
36654;DHT22;22650;49.350;20.898;2022-11-20T00:32:08;-3.10;99.90
36654;DHT22;22650;49.350;20.898;2022-11-20T00:34:42;-3.10;99.90
36654;DHT22;22650;49.350;20.898;2022-11-20T00:37:15;-3.10;99.90
36654;DHT22;22650;49.350;20.898;2022-11-20T00:39:48;-3.20;99.90
36654;DHT22;22650;49.350;20.898;2022-11-20T00:42:22;-3.10;99.90
36654;DHT22;22650;49.350;20.898;2022-11-20T00:44:55;-3.20;99.90
36654;DHT22;22650;49.350;20.898;2022-11-20T00:47:30;-3.20;99.90
36654;DHT22;22650;49.350;20.898;2022-11-20T00:50:04;-3.10;99.90
36654;DHT22;22650;49.350;20.898;2022-11-20T00:52:37;-3.20;99.90
36654;DHT22;22650;49.350;20.898;2022-11-20T00:55:11;-3.20;99.90
36654;DHT22;22650;49.350;20.898;2022-11-20T00:57:44;-3.20;99.90
36654;DHT22;22650;49.350;20.898;2022-11-20T01:00:18;-3.20;99.90
36654;DHT22;22650;49.350;20.898;2022-11-20T01:02:55;-3.20;99.90
36654;DHT22;22650;49.350;20.898;2022-11-20T01:05:28;-3.20;99.90
36654;DHT22;22650;49.350;20.898;2022-11-20T01:08:02;-3.20;99.90
36654;DHT22;22650;49.350;20.898;2022-11-20T01:10:35;-3.20;99.90
36654;DHT22;22650;49.350;20.898;2022-11-20T01:13:09;-3.30;99.90
36654;DHT22;22650;49.350;20.898;2022-11-20T01:16:02;-3.30;99.90
36654;DHT22;22650;49.350;20.898;2022-11-20T01:18:39;-3.20;99.90
36654;DHT22;22650;49.350;20.898;2022-11-20T01:21:15;-3.20;99.90
36654;DHT22;22650;49.350;20.898;2022-11-20T01:23:49;-3.20;99.90
36654;DHT22;22650;49.350;20.898;2022-11-20T01:26:24;-3.20;99.90
36654;DHT22;22650;49.350;20.898;2022-11-20T01:28:58;-3.20;99.90
36654;DHT22;22650;49.350;20.898;2022-11-20T01:31:33;-3.20;99.90
36654;DHT22;22650;49.350;20.898;2022-11-20T01:34:11;-3.20;99.90
36654;DHT22;22650;49.350;20.898;2022-11-20T01:36:45;-3.20;99.90
36654;DHT22;22650;49.350;20.898;2022-11-20T01:39:20;-3.20;99.90
36654;DHT22;22650;49.350;20.898;2022-11-20T01:41:55;-3.20;99.90
36654;DHT22;22650;49.350;20.898;2022-11-20T01:44:52;-3.20;99.90
36654;DHT22;22650;49.350;20.898;2022-11-20T01:47:31;-3.10;99.90
36654;DHT22;22650;49.350;20.898;2022-11-20T01:50:15;-3.10;99.90
36654;DHT22;22650;49.350;20.898;2022-11-20T01:52:52;-3.00;99.90
36654;DHT22;22650;49.350;20.898;2022-11-20T01:55:31;-3.10;99.90
36654;DHT22;22650;49.350;20.898;2022-11-20T01:58:06;-3.00;99.90
36654;DHT22;22650;49.350;20.898;2022-11-20T02:00:40;-3.00;99.90
36654;DHT22;22650;49.350;20.898;2022-11-20T02:03:16;-3.00;99.90
36654;DHT22;22650;49.350;20.898;2022-11-20T02:05:56;-3.00;99.90
36654;DHT22;22650;49.350;20.898;2022-11-20T02:08:31;-3.00;99.90
36654;DHT22;22650;49.350;20.898;2022-11-20T02:11:05;-3.00;99.90
36654;DHT22;22650;49.350;20.898;2022-11-20T02:13:38;-3.00;99.90
36654;DHT22;22650;49.350;20.898;2022-11-20T02:16:22;-3.00;99.90
36654;DHT22;22650;49.350;20.898;2022-11-20T02:19:00;-3.00;99.90
36654;DHT22;22650;49.350;20.898;2022-11-20T02:21:41;-3.00;99.90
36654;DHT22;22650;49.350;20.898;2022-11-20T02:24:18;-3.00;99.90
36654;DHT22;22650;49.350;20.898;2022-11-20T02:26:54;-3.00;99.90
36654;DHT22;22650;49.350;20.898;2022-11-20T02:29:32;-3.00;99.90
36654;DHT22;22650;49.350;20.898;2022-11-20T02:32:17;-3.00;99.90
36654;DHT22;22650;49.350;20.898;2022-11-20T02:34:51;-3.00;99.90
36654;DHT22;22650;49.350;20.898;2022-11-20T02:37:30;-3.00;99.90
36654;DHT22;22650;49.350;20.898;2022-11-20T02:40:08;-3.10;99.90
36654;DHT22;22650;49.350;20.898;2022-11-20T02:42:41;-3.10;99.90
36654;DHT22;22650;49.350;20.898;2022-11-20T02:45:15;-3.10;99.90
36654;DHT22;22650;49.350;20.898;2022-11-20T02:47:49;-3.10;99.90
36654;DHT22;22650;49.350;20.898;2022-11-20T02:50:22;-3.10;99.90
36654;DHT22;22650;49.350;20.898;2022-11-20T02:52:55;-3.10;99.90
36654;DHT22;22650;49.350;20.898;2022-11-20T02:55:30;-3.10;99.90
36654;DHT22;22650;49.350;20.898;2022-11-20T02:58:04;-3.10;99.90
36654;DHT22;22650;49.350;20.898;2022-11-20T03:00:37;-3.10;99.90
36654;DHT22;22650;49.350;20.898;2022-11-20T03:03:11;-3.20;99.90
36654;DHT22;22650;49.350;20.898;2022-11-20T03:05:44;-3.20;99.90
36654;DHT22;22650;49.350;20.898;2022-11-20T03:08:18;-3.20;99.90
36654;DHT22;22650;49.350;20.898;2022-11-20T03:10:52;-3.10;99.90
36654;DHT22;22650;49.350;20.898;2022-11-20T03:13:26;-3.10;99.90
36654;DHT22;22650;49.350;20.898;2022-11-20T03:16:08;-3.10;99.90
36654;DHT22;22650;49.350;20.898;2022-11-20T03:18:42;-3.10;99.90
36654;DHT22;22650;49.350;20.898;2022-11-20T03:21:16;-3.10;99.90
36654;DHT22;22650;49.350;20.898;2022-11-20T03:23:49;-3.10;99.90
36654;DHT22;22650;49.350;20.898;2022-11-20T03:26:25;-3.20;99.90
36654;DHT22;22650;49.350;20.898;2022-11-20T03:29:01;-3.20;99.90
36654;DHT22;22650;49.350;20.898;2022-11-20T03:31:36;-3.20;99.90
36654;DHT22;22650;49.350;20.898;2022-11-20T03:34:12;-3.20;99.90
36654;DHT22;22650;49.350;20.898;2022-11-20T03:36:45;-3.20;99.90
36654;DHT22;22650;49.350;20.898;2022-11-20T03:39:19;-3.30;99.90
36654;DHT22;22650;49.350;20.898;2022-11-20T03:41:54;-3.30;99.90
36654;DHT22;22650;49.350;20.898;2022-11-20T03:44:27;-3.30;99.90
36654;DHT22;22650;49.350;20.898;2022-11-20T03:47:01;-3.40;99.90
36654;DHT22;22650;49.350;20.898;2022-11-20T03:49:34;-3.40;99.90
36654;DHT22;22650;49.350;20.898;2022-11-20T03:52:07;-3.40;99.90
36654;DHT22;22650;49.350;20.898;2022-11-20T03:54:41;-3.50;99.90
36654;DHT22;22650;49.350;20.898;2022-11-20T03:57:16;-3.50;99.90
36654;DHT22;22650;49.350;20.898;2022-11-20T03:59:49;-3.50;99.90
36654;DHT22;22650;49.350;20.898;2022-11-20T04:02:22;-3.50;99.90
36654;DHT22;22650;49.350;20.898;2022-11-20T04:04:56;-3.50;99.90
36654;DHT22;22650;49.350;20.898;2022-11-20T04:07:29;-3.50;99.90
36654;DHT22;22650;49.350;20.898;2022-11-20T04:10:04;-3.50;99.90
36654;DHT22;22650;49.350;20.898;2022-11-20T04:12:39;-3.50;99.90
36654;DHT22;22650;49.350;20.898;2022-11-20T04:15:12;-3.50;99.90
36654;DHT22;22650;49.350;20.898;2022-11-20T04:17:46;-3.50;99.90
36654;DHT22;22650;49.350;20.898;2022-11-20T04:20:19;-3.50;99.90
36654;DHT22;22650;49.350;20.898;2022-11-20T04:22:53;-3.50;99.90
36654;DHT22;22650;49.350;20.898;2022-11-20T04:25:27;-3.50;99.90
36654;DHT22;22650;49.350;20.898;2022-11-20T04:28:02;-3.50;99.90
36654;DHT22;22650;49.350;20.898;2022-11-20T04:30:36;-3.50;99.90
36654;DHT22;22650;49.350;20.898;2022-11-20T04:33:09;-3.50;99.90
36654;DHT22;22650;49.350;20.898;2022-11-20T04:35:44;-3.60;99.90
36654;DHT22;22650;49.350;20.898;2022-11-20T04:38:19;-3.60;99.90
36654;DHT22;22650;49.350;20.898;2022-11-20T04:40:56;-3.60;99.90
36654;DHT22;22650;49.350;20.898;2022-11-20T04:43:31;-3.60;99.90
36654;DHT22;22650;49.350;20.898;2022-11-20T04:46:05;-3.60;99.90
36654;DHT22;22650;49.350;20.898;2022-11-20T04:48:38;-3.60;99.90
36654;DHT22;22650;49.350;20.898;2022-11-20T04:51:12;-3.60;99.90
36654;DHT22;22650;49.350;20.898;2022-11-20T04:53:46;-3.60;99.90
36654;DHT22;22650;49.350;20.898;2022-11-20T04:56:19;-3.70;99.90
36654;DHT22;22650;49.350;20.898;2022-11-20T04:58:54;-3.70;99.90
36654;DHT22;22650;49.350;20.898;2022-11-20T05:01:28;-3.70;99.90
36654;DHT22;22650;49.350;20.898;2022-11-20T05:04:01;-3.70;99.90
36654;DHT22;22650;49.350;20.898;2022-11-20T05:06:35;-3.70;99.90
36654;DHT22;22650;49.350;20.898;2022-11-20T05:09:08;-3.70;99.90
36654;DHT22;22650;49.350;20.898;2022-11-20T05:11:42;-3.70;99.90
36654;DHT22;22650;49.350;20.898;2022-11-20T05:14:21;-3.80;99.90
36654;DHT22;22650;49.350;20.898;2022-11-20T05:16:54;-3.80;99.90
36654;DHT22;22650;49.350;20.898;2022-11-20T05:19:28;-3.80;99.90
36654;DHT22;22650;49.350;20.898;2022-11-20T05:22:01;-3.80;99.90
36654;DHT22;22650;49.350;20.898;2022-11-20T05:24:34;-3.80;99.90
36654;DHT22;22650;49.350;20.898;2022-11-20T05:27:08;-3.80;99.90
36654;DHT22;22650;49.350;20.898;2022-11-20T05:29:43;-3.90;99.90
36654;DHT22;22650;49.350;20.898;2022-11-20T05:32:16;-3.90;99.90
36654;DHT22;22650;49.350;20.898;2022-11-20T05:34:49;-4.00;99.90
36654;DHT22;22650;49.350;20.898;2022-11-20T05:37:22;-4.00;99.90
36654;DHT22;22650;49.350;20.898;2022-11-20T05:39:56;-4.00;99.90
36654;DHT22;22650;49.350;20.898;2022-11-20T05:42:30;-4.00;99.90
36654;DHT22;22650;49.350;20.898;2022-11-20T05:45:06;-4.00;99.90
36654;DHT22;22650;49.350;20.898;2022-11-20T05:47:39;-4.10;99.90
36654;DHT22;22650;49.350;20.898;2022-11-20T05:50:13;-4.10;99.90
36654;DHT22;22650;49.350;20.898;2022-11-20T05:52:46;-4.10;99.90
36654;DHT22;22650;49.350;20.898;2022-11-20T05:55:20;-4.10;99.90
36654;DHT22;22650;49.350;20.898;2022-11-20T05:57:53;-4.10;99.90
36654;DHT22;22650;49.350;20.898;2022-11-20T06:00:28;-4.10;99.90
36654;DHT22;22650;49.350;20.898;2022-11-20T06:03:01;-4.10;99.90
36654;DHT22;22650;49.350;20.898;2022-11-20T06:05:35;-4.10;99.90
36654;DHT22;22650;49.350;20.898;2022-11-20T06:08:09;-4.10;99.90
36654;DHT22;22650;49.350;20.898;2022-11-20T06:10:42;-4.10;99.90
36654;DHT22;22650;49.350;20.898;2022-11-20T06:13:15;-4.20;99.90
36654;DHT22;22650;49.350;20.898;2022-11-20T06:15:51;-4.10;99.90
36654;DHT22;22650;49.350;20.898;2022-11-20T06:18:26;-4.10;99.90
36654;DHT22;22650;49.350;20.898;2022-11-20T06:21:01;-4.20;99.90
36654;DHT22;22650;49.350;20.898;2022-11-20T06:23:35;-4.10;99.90
36654;DHT22;22650;49.350;20.898;2022-11-20T06:26:11;-4.10;99.90
36654;DHT22;22650;49.350;20.898;2022-11-20T06:28:45;-4.10;99.90
36654;DHT22;22650;49.350;20.898;2022-11-20T06:31:21;-4.10;99.90
36654;DHT22;22650;49.350;20.898;2022-11-20T06:33:55;-4.10;99.90
36654;DHT22;22650;49.350;20.898;2022-11-20T06:36:28;-4.10;99.90
36654;DHT22;22650;49.350;20.898;2022-11-20T06:39:02;-4.10;99.90
36654;DHT22;22650;49.350;20.898;2022-11-20T06:41:36;-4.10;99.90
36654;DHT22;22650;49.350;20.898;2022-11-20T06:44:09;-4.00;99.90
36654;DHT22;22650;49.350;20.898;2022-11-20T06:46:44;-4.00;99.90
36654;DHT22;22650;49.350;20.898;2022-11-20T06:49:17;-4.00;99.90
36654;DHT22;22650;49.350;20.898;2022-11-20T06:51:51;-3.90;99.90
36654;DHT22;22650;49.350;20.898;2022-11-20T06:54:25;-3.90;99.90
36654;DHT22;22650;49.350;20.898;2022-11-20T06:56:58;-3.80;99.90
36654;DHT22;22650;49.350;20.898;2022-11-20T06:59:31;-3.80;99.90
36654;DHT22;22650;49.350;20.898;2022-11-20T07:02:09;-3.70;99.90
36654;DHT22;22650;49.350;20.898;2022-11-20T07:04:42;-3.70;99.90
36654;DHT22;22650;49.350;20.898;2022-11-20T07:07:16;-3.70;99.90
36654;DHT22;22650;49.350;20.898;2022-11-20T07:09:50;-3.60;99.90
36654;DHT22;22650;49.350;20.898;2022-11-20T07:12:23;-3.60;99.90
36654;DHT22;22650;49.350;20.898;2022-11-20T07:14:56;-3.60;99.90
36654;DHT22;22650;49.350;20.898;2022-11-20T07:17:31;-3.50;99.90
36654;DHT22;22650;49.350;20.898;2022-11-20T07:20:05;-3.50;99.90
36654;DHT22;22650;49.350;20.898;2022-11-20T07:22:38;-3.50;99.90
36654;DHT22;22650;49.350;20.898;2022-11-20T07:25:12;-3.40;99.90
36654;DHT22;22650;49.350;20.898;2022-11-20T07:27:45;-3.30;99.90
36654;DHT22;22650;49.350;20.898;2022-11-20T07:30:18;-3.30;99.90
36654;DHT22;22650;49.350;20.898;2022-11-20T07:32:55;-3.20;99.90
36654;DHT22;22650;49.350;20.898;2022-11-20T07:35:28;-3.10;99.90
36654;DHT22;22650;49.350;20.898;2022-11-20T07:38:02;-3.10;99.90
36654;DHT22;22650;49.350;20.898;2022-11-20T07:40:35;-3.10;99.90
36654;DHT22;22650;49.350;20.898;2022-11-20T07:43:08;-3.00;99.90
36654;DHT22;22650;49.350;20.898;2022-11-20T07:45:42;-2.90;99.90
36654;DHT22;22650;49.350;20.898;2022-11-20T07:48:17;-2.90;99.90
36654;DHT22;22650;49.350;20.898;2022-11-20T07:50:53;-2.80;99.90
36654;DHT22;22650;49.350;20.898;2022-11-20T07:53:27;-2.70;99.90
36654;DHT22;22650;49.350;20.898;2022-11-20T07:56:01;-2.70;99.90
36654;DHT22;22650;49.350;20.898;2022-11-20T07:58:34;-2.60;99.90
36654;DHT22;22650;49.350;20.898;2022-11-20T08:01:08;-2.60;99.90
36654;DHT22;22650;49.350;20.898;2022-11-20T08:03:43;-2.60;99.90
36654;DHT22;22650;49.350;20.898;2022-11-20T08:06:16;-2.50;99.90
36654;DHT22;22650;49.350;20.898;2022-11-20T08:08:51;-2.50;99.90
36654;DHT22;22650;49.350;20.898;2022-11-20T08:11:24;-2.40;99.90
36654;DHT22;22650;49.350;20.898;2022-11-20T08:14:15;-2.30;99.90
36654;DHT22;22650;49.350;20.898;2022-11-20T08:16:49;-2.20;99.90
36654;DHT22;22650;49.350;20.898;2022-11-20T08:19:24;-2.10;99.90
36654;DHT22;22650;49.350;20.898;2022-11-20T08:21:57;-2.00;99.90
36654;DHT22;22650;49.350;20.898;2022-11-20T08:24:30;-1.90;99.90
36654;DHT22;22650;49.350;20.898;2022-11-20T08:27:04;-1.90;99.90
36654;DHT22;22650;49.350;20.898;2022-11-20T08:29:37;-1.80;99.90
36654;DHT22;22650;49.350;20.898;2022-11-20T08:32:11;-1.70;99.90
36654;DHT22;22650;49.350;20.898;2022-11-20T08:34:46;-1.50;99.90
36654;DHT22;22650;49.350;20.898;2022-11-20T08:37:19;-1.40;99.90
36654;DHT22;22650;49.350;20.898;2022-11-20T08:39:53;-1.20;99.90
36654;DHT22;22650;49.350;20.898;2022-11-20T08:42:29;-1.00;99.90
36654;DHT22;22650;49.350;20.898;2022-11-20T08:45:03;-0.70;99.90
36654;DHT22;22650;49.350;20.898;2022-11-20T08:47:36;-0.50;99.90
36654;DHT22;22650;49.350;20.898;2022-11-20T08:50:12;-0.20;99.90
36654;DHT22;22650;49.350;20.898;2022-11-20T08:52:46;0.00;99.90
36654;DHT22;22650;49.350;20.898;2022-11-20T08:55:19;0.20;99.90
36654;DHT22;22650;49.350;20.898;2022-11-20T08:57:52;0.40;99.90
36654;DHT22;22650;49.350;20.898;2022-11-20T09:00:26;0.40;99.90
36654;DHT22;22650;49.350;20.898;2022-11-20T09:02:59;0.50;99.90
36654;DHT22;22650;49.350;20.898;2022-11-20T09:05:35;0.60;99.90
36654;DHT22;22650;49.350;20.898;2022-11-20T09:08:08;0.80;99.90
36654;DHT22;22650;49.350;20.898;2022-11-20T09:10:41;1.00;99.90
36654;DHT22;22650;49.350;20.898;2022-11-20T09:13:15;1.00;99.90
36654;DHT22;22650;49.350;20.898;2022-11-20T09:15:53;1.20;99.90
36654;DHT22;22650;49.350;20.898;2022-11-20T09:18:28;1.40;99.90
36654;DHT22;22650;49.350;20.898;2022-11-20T09:21:06;1.60;99.90
36654;DHT22;22650;49.350;20.898;2022-11-20T09:23:40;1.80;99.90
36654;DHT22;22650;49.350;20.898;2022-11-20T09:26:14;2.00;99.90
36654;DHT22;22650;49.350;20.898;2022-11-20T09:28:47;2.20;99.90
36654;DHT22;22650;49.350;20.898;2022-11-20T09:31:26;2.40;99.90
36654;DHT22;22650;49.350;20.898;2022-11-20T09:33:59;2.50;99.90
36654;DHT22;22650;49.350;20.898;2022-11-20T09:36:34;2.40;99.90
36654;DHT22;22650;49.350;20.898;2022-11-20T09:39:07;2.30;99.90
36654;DHT22;22650;49.350;20.898;2022-11-20T09:42:05;2.30;99.90
36654;DHT22;22650;49.350;20.898;2022-11-20T09:44:53;2.20;99.90
36654;DHT22;22650;49.350;20.898;2022-11-20T09:47:40;2.20;99.90
36654;DHT22;22650;49.350;20.898;2022-11-20T09:50:25;2.10;99.90
36654;DHT22;22650;49.350;20.898;2022-11-20T09:53:13;2.10;99.90
36654;DHT22;22650;49.350;20.898;2022-11-20T09:55:48;2.10;99.90
36654;DHT22;22650;49.350;20.898;2022-11-20T09:58:28;2.10;99.90
36654;DHT22;22650;49.350;20.898;2022-11-20T10:01:10;2.10;99.90
36654;DHT22;22650;49.350;20.898;2022-11-20T10:03:52;2.10;99.90
36654;DHT22;22650;49.350;20.898;2022-11-20T10:06:30;2.10;99.90
36654;DHT22;22650;49.350;20.898;2022-11-20T10:09:16;2.00;99.90
36654;DHT22;22650;49.350;20.898;2022-11-20T10:11:57;2.10;99.90
36654;DHT22;22650;49.350;20.898;2022-11-20T10:14:38;2.10;99.90
36654;DHT22;22650;49.350;20.898;2022-11-20T10:17:22;2.10;99.90
36654;DHT22;22650;49.350;20.898;2022-11-20T10:20:16;2.10;99.90
36654;DHT22;22650;49.350;20.898;2022-11-20T10:23:06;2.10;99.90
36654;DHT22;22650;49.350;20.898;2022-11-20T10:25:51;2.10;99.90
36654;DHT22;22650;49.350;20.898;2022-11-20T10:28:40;2.10;99.90
36654;DHT22;22650;49.350;20.898;2022-11-20T10:31:31;2.10;99.90
36654;DHT22;22650;49.350;20.898;2022-11-20T10:34:12;2.20;99.90
36654;DHT22;22650;49.350;20.898;2022-11-20T10:36:55;2.20;99.90
36654;DHT22;22650;49.350;20.898;2022-11-20T10:39:33;2.40;99.90
36654;DHT22;22650;49.350;20.898;2022-11-20T10:42:12;2.40;99.90
36654;DHT22;22650;49.350;20.898;2022-11-20T10:44:55;2.50;99.90
36654;DHT22;22650;49.350;20.898;2022-11-20T10:47:39;2.50;99.90
36654;DHT22;22650;49.350;20.898;2022-11-20T10:50:18;2.50;99.90
36654;DHT22;22650;49.350;20.898;2022-11-20T10:52:59;2.60;99.90
36654;DHT22;22650;49.350;20.898;2022-11-20T10:55:42;2.60;99.90
36654;DHT22;22650;49.350;20.898;2022-11-20T10:58:25;2.60;99.90
36654;DHT22;22650;49.350;20.898;2022-11-20T11:01:04;2.60;99.90
36654;DHT22;22650;49.350;20.898;2022-11-20T11:03:38;2.60;99.90
36654;DHT22;22650;49.350;20.898;2022-11-20T11:06:15;2.60;99.90
36654;DHT22;22650;49.350;20.898;2022-11-20T11:08:53;2.60;99.90
36654;DHT22;22650;49.350;20.898;2022-11-20T11:11:29;2.70;99.90
36654;DHT22;22650;49.350;20.898;2022-11-20T11:14:10;2.70;99.90
36654;DHT22;22650;49.350;20.898;2022-11-20T11:16:50;2.70;99.90
36654;DHT22;22650;49.350;20.898;2022-11-20T11:19:23;2.80;99.90
36654;DHT22;22650;49.350;20.898;2022-11-20T11:21:57;3.00;99.90
36654;DHT22;22650;49.350;20.898;2022-11-20T11:24:30;3.10;99.90
36654;DHT22;22650;49.350;20.898;2022-11-20T11:27:15;3.10;99.90
36654;DHT22;22650;49.350;20.898;2022-11-20T11:30:03;3.30;99.90
36654;DHT22;22650;49.350;20.898;2022-11-20T11:32:36;3.70;99.90
36654;DHT22;22650;49.350;20.898;2022-11-20T11:35:21;3.90;99.90
36654;DHT22;22650;49.350;20.898;2022-11-20T11:38:03;4.30;99.90
36654;DHT22;22650;49.350;20.898;2022-11-20T11:40:39;4.50;99.90
36654;DHT22;22650;49.350;20.898;2022-11-20T11:43:19;4.70;99.90
36654;DHT22;22650;49.350;20.898;2022-11-20T11:46:25;4.90;99.90
36654;DHT22;22650;49.350;20.898;2022-11-20T11:49:01;5.30;99.90
36654;DHT22;22650;49.350;20.898;2022-11-20T11:51:54;5.50;99.90
36654;DHT22;22650;49.350;20.898;2022-11-20T11:54:34;5.80;99.90
36654;DHT22;22650;49.350;20.898;2022-11-20T11:57:20;6.10;99.90
36654;DHT22;22650;49.350;20.898;2022-11-20T12:00:02;6.30;99.90
36654;DHT22;22650;49.350;20.898;2022-11-20T12:02:46;6.30;99.90
36654;DHT22;22650;49.350;20.898;2022-11-20T12:05:24;6.30;99.90
36654;DHT22;22650;49.350;20.898;2022-11-20T12:08:03;6.10;99.90
36654;DHT22;22650;49.350;20.898;2022-11-20T12:10:46;5.90;99.90
36654;DHT22;22650;49.350;20.898;2022-11-20T12:13:31;5.80;99.90
36654;DHT22;22650;49.350;20.898;2022-11-20T12:16:11;5.70;99.90
36654;DHT22;22650;49.350;20.898;2022-11-20T12:18:48;5.60;99.90
36654;DHT22;22650;49.350;20.898;2022-11-20T12:21:28;5.60;99.90
36654;DHT22;22650;49.350;20.898;2022-11-20T12:24:14;5.60;99.90
36654;DHT22;22650;49.350;20.898;2022-11-20T12:27:01;5.60;99.90
36654;DHT22;22650;49.350;20.898;2022-11-20T12:29:46;5.50;99.90
36654;DHT22;22650;49.350;20.898;2022-11-20T12:35:42;5.40;99.90
36654;DHT22;22650;49.350;20.898;2022-11-20T12:38:51;5.20;99.90
36654;DHT22;22650;49.350;20.898;2022-11-20T12:41:40;5.10;99.90
36654;DHT22;22650;49.350;20.898;2022-11-20T12:44:43;4.90;99.90
36654;DHT22;22650;49.350;20.898;2022-11-20T12:47:53;4.90;99.90
36654;DHT22;22650;49.350;20.898;2022-11-20T12:50:40;4.80;99.90
36654;DHT22;22650;49.350;20.898;2022-11-20T12:53:41;4.70;99.90
36654;DHT22;22650;49.350;20.898;2022-11-20T12:56:27;4.70;99.90
36654;DHT22;22650;49.350;20.898;2022-11-20T12:59:13;4.60;99.90
36654;DHT22;22650;49.350;20.898;2022-11-20T13:01:51;4.60;99.90
36654;DHT22;22650;49.350;20.898;2022-11-20T13:04:57;4.60;99.90
36654;DHT22;22650;49.350;20.898;2022-11-20T13:07:35;4.60;99.90
36654;DHT22;22650;49.350;20.898;2022-11-20T13:10:15;4.60;99.90
36654;DHT22;22650;49.350;20.898;2022-11-20T13:12:55;4.70;99.90
36654;DHT22;22650;49.350;20.898;2022-11-20T13:15:38;4.70;99.90
36654;DHT22;22650;49.350;20.898;2022-11-20T13:18:15;4.70;99.90
36654;DHT22;22650;49.350;20.898;2022-11-20T13:20:49;4.80;99.90
36654;DHT22;22650;49.350;20.898;2022-11-20T13:23:26;4.80;99.90
36654;DHT22;22650;49.350;20.898;2022-11-20T13:26:05;4.70;99.90
36654;DHT22;22650;49.350;20.898;2022-11-20T13:28:39;4.90;99.90
36654;DHT22;22650;49.350;20.898;2022-11-20T13:31:28;5.00;99.90
36654;DHT22;22650;49.350;20.898;2022-11-20T13:34:05;5.20;99.90
36654;DHT22;22650;49.350;20.898;2022-11-20T13:36:49;5.20;99.90
36654;DHT22;22650;49.350;20.898;2022-11-20T13:39:29;5.20;99.90
36654;DHT22;22650;49.350;20.898;2022-11-20T13:42:22;5.20;99.90
36654;DHT22;22650;49.350;20.898;2022-11-20T13:45:02;5.20;99.90
36654;DHT22;22650;49.350;20.898;2022-11-20T13:47:47;5.10;99.90
36654;DHT22;22650;49.350;20.898;2022-11-20T13:50:38;5.00;99.90
36654;DHT22;22650;49.350;20.898;2022-11-20T13:56:18;4.80;99.90
36654;DHT22;22650;49.350;20.898;2022-11-20T13:59:02;4.70;99.90
36654;DHT22;22650;49.350;20.898;2022-11-20T14:01:46;4.60;99.90
36654;DHT22;22650;49.350;20.898;2022-11-20T14:04:25;4.50;99.90
36654;DHT22;22650;49.350;20.898;2022-11-20T14:06:59;4.30;99.90
36654;DHT22;22650;49.350;20.898;2022-11-20T14:09:34;4.20;99.90
36654;DHT22;22650;49.350;20.898;2022-11-20T14:12:16;4.10;99.90
36654;DHT22;22650;49.350;20.898;2022-11-20T14:14:51;3.90;99.90
36654;DHT22;22650;49.350;20.898;2022-11-20T14:17:31;3.80;99.90
36654;DHT22;22650;49.350;20.898;2022-11-20T14:20:06;3.60;99.90
36654;DHT22;22650;49.350;20.898;2022-11-20T14:22:48;3.50;99.90
36654;DHT22;22650;49.350;20.898;2022-11-20T14:25:23;3.40;99.90
36654;DHT22;22650;49.350;20.898;2022-11-20T14:28:01;3.30;99.90
36654;DHT22;22650;49.350;20.898;2022-11-20T14:30:39;3.20;99.90
36654;DHT22;22650;49.350;20.898;2022-11-20T14:33:16;3.10;99.90
36654;DHT22;22650;49.350;20.898;2022-11-20T14:35:51;3.00;99.90
36654;DHT22;22650;49.350;20.898;2022-11-20T14:38:27;2.80;99.90
36654;DHT22;22650;49.350;20.898;2022-11-20T14:41:07;2.70;99.90
36654;DHT22;22650;49.350;20.898;2022-11-20T14:43:45;2.70;99.90
36654;DHT22;22650;49.350;20.898;2022-11-20T14:46:19;2.60;99.90
36654;DHT22;22650;49.350;20.898;2022-11-20T14:48:55;2.50;99.90
36654;DHT22;22650;49.350;20.898;2022-11-20T14:51:33;2.50;99.90
36654;DHT22;22650;49.350;20.898;2022-11-20T14:54:11;2.40;99.90
36654;DHT22;22650;49.350;20.898;2022-11-20T14:56:55;2.40;99.90
36654;DHT22;22650;49.350;20.898;2022-11-20T14:59:32;2.30;99.90
36654;DHT22;22650;49.350;20.898;2022-11-20T15:02:08;2.20;99.90
36654;DHT22;22650;49.350;20.898;2022-11-20T15:04:46;2.00;99.90
36654;DHT22;22650;49.350;20.898;2022-11-20T15:07:25;1.90;99.90
36654;DHT22;22650;49.350;20.898;2022-11-20T15:10:00;1.80;99.90
36654;DHT22;22650;49.350;20.898;2022-11-20T15:12:35;1.80;99.90
36654;DHT22;22650;49.350;20.898;2022-11-20T15:15:12;1.70;99.90
36654;DHT22;22650;49.350;20.898;2022-11-20T15:17:48;1.70;99.90
36654;DHT22;22650;49.350;20.898;2022-11-20T15:20:25;1.60;99.90
36654;DHT22;22650;49.350;20.898;2022-11-20T15:22:59;1.60;99.90
36654;DHT22;22650;49.350;20.898;2022-11-20T15:25:33;1.60;99.90
36654;DHT22;22650;49.350;20.898;2022-11-20T15:28:13;1.60;99.90
36654;DHT22;22650;49.350;20.898;2022-11-20T15:30:50;1.50;99.90
36654;DHT22;22650;49.350;20.898;2022-11-20T15:33:23;1.50;99.90
36654;DHT22;22650;49.350;20.898;2022-11-20T15:35:56;1.40;99.90
36654;DHT22;22650;49.350;20.898;2022-11-20T15:38:30;1.40;99.90
36654;DHT22;22650;49.350;20.898;2022-11-20T15:41:03;1.40;99.90
36654;DHT22;22650;49.350;20.898;2022-11-20T15:43:37;1.30;99.90
36654;DHT22;22650;49.350;20.898;2022-11-20T15:46:14;1.30;99.90
36654;DHT22;22650;49.350;20.898;2022-11-20T15:48:51;1.20;99.90
36654;DHT22;22650;49.350;20.898;2022-11-20T15:51:27;1.20;99.90
36654;DHT22;22650;49.350;20.898;2022-11-20T15:54:00;1.10;99.90
36654;DHT22;22650;49.350;20.898;2022-11-20T15:56:34;1.10;99.90
36654;DHT22;22650;49.350;20.898;2022-11-20T15:59:07;1.00;99.90
36654;DHT22;22650;49.350;20.898;2022-11-20T16:01:42;1.00;99.90
36654;DHT22;22650;49.350;20.898;2022-11-20T16:04:16;1.00;99.90
36654;DHT22;22650;49.350;20.898;2022-11-20T16:06:50;0.90;99.90
36654;DHT22;22650;49.350;20.898;2022-11-20T16:09:23;0.90;99.90
36654;DHT22;22650;49.350;20.898;2022-11-20T16:11:57;0.80;99.90
36654;DHT22;22650;49.350;20.898;2022-11-20T16:14:31;0.60;99.90
36654;DHT22;22650;49.350;20.898;2022-11-20T16:17:44;0.60;99.90
36654;DHT22;22650;49.350;20.898;2022-11-20T16:20:18;0.50;99.90
36654;DHT22;22650;49.350;20.898;2022-11-20T16:22:52;0.40;99.90
36654;DHT22;22650;49.350;20.898;2022-11-20T16:25:27;0.40;99.90
36654;DHT22;22650;49.350;20.898;2022-11-20T16:28:00;0.40;99.90
36654;DHT22;22650;49.350;20.898;2022-11-20T16:30:33;0.40;99.90